createdAt,value
2023-01-07T00:01:48.502Z,101558.53
2023-01-07T00:07:11.878Z,101553.50
2023-01-07T00:12:33.805Z,101555.06
2023-01-07T00:17:55.575Z,101548.03
2023-01-07T00:23:17.314Z,101545.72
2023-01-07T00:28:41.599Z,101536.78
2023-01-07T00:34:03.968Z,101540.03
2023-01-07T00:39:25.729Z,101528.56
2023-01-07T00:44:47.443Z,101523.47
2023-01-07T00:50:09.237Z,101526.25
2023-01-07T00:55:31.930Z,101517.56
2023-01-07T01:00:58.678Z,101507.53
2023-01-07T01:06:20.535Z,101504.41
2023-01-07T01:11:42.359Z,101497.16
2023-01-07T01:17:04.161Z,101489.56
2023-01-07T01:22:25.936Z,101484.25
2023-01-07T01:27:47.752Z,101478.09
2023-01-07T01:33:09.595Z,101477.50
2023-01-07T01:38:31.348Z,101471.06
2023-01-07T01:43:53.141Z,101467.09
2023-01-07T01:49:23.502Z,101479.03
2023-01-07T01:54:52.634Z,101460.34
2023-01-07T02:00:16.682Z,101463.38
2023-01-07T02:05:41.692Z,101456.13
2023-01-07T02:11:16.915Z,101450.78
2023-01-07T02:16:53.339Z,101452.13
2023-01-07T02:22:44.199Z,101445.13
2023-01-07T02:28:18.118Z,101452.59
2023-01-07T02:33:51.030Z,101446.47
2023-01-07T02:39:40.950Z,101443.91
2023-01-07T02:45:21.895Z,101437.53
2023-01-07T02:50:43.755Z,101436.31
2023-01-07T02:56:08.355Z,101430.75
2023-01-07T03:01:30.305Z,101427.38
2023-01-07T03:07:19.673Z,101411.59
2023-01-07T03:12:52.193Z,101413.97
2023-01-07T03:18:28.907Z,101412.88
2023-01-07T03:23:57.156Z,101398.44
2023-01-07T03:29:20.987Z,101396.97
2023-01-07T03:34:44.078Z,101391.66
2023-01-07T03:40:10.105Z,101388.28
2023-01-07T03:45:31.927Z,101385.75
2023-01-07T03:50:53.663Z,101378.28
2023-01-07T03:56:15.401Z,101373.81
2023-01-07T04:01:37.347Z,101376.81
2023-01-07T04:06:59.191Z,101366.78
2023-01-07T04:12:21.028Z,101367.88
2023-01-07T04:17:42.848Z,101352.56
2023-01-07T04:23:04.571Z,101345.31
2023-01-07T04:28:26.337Z,101335.31
2023-01-07T04:33:48.182Z,101331.66
2023-01-07T04:39:09.913Z,101329.16
2023-01-07T04:44:31.656Z,101317.22
2023-01-07T04:49:53.354Z,101313.59
2023-01-07T04:55:15.182Z,101297.19
2023-01-07T05:00:37.452Z,101294.66
2023-01-07T05:05:59.236Z,101290.22
2023-01-07T05:11:22.054Z,101287.44
2023-01-07T05:16:43.899Z,101283.81
2023-01-07T05:22:05.702Z,101273.81
2023-01-07T05:27:27.432Z,101265.72
2023-01-07T05:32:49.229Z,101263.19
2023-01-07T05:38:11.095Z,101256.81
2023-01-07T05:43:33.067Z,101252.34
2023-01-07T05:48:54.837Z,101241.50
2023-01-07T05:54:16.668Z,101235.97
2023-01-07T05:59:38.663Z,101218.47
2023-01-07T06:05:00.495Z,101219.81
2023-01-07T06:10:22.594Z,101220.63
2023-01-07T06:15:44.355Z,101207.03
2023-01-07T06:21:06.214Z,101205.34
2023-01-07T06:26:27.960Z,101196.41
2023-01-07T06:31:49.849Z,101191.72
2023-01-07T06:37:11.728Z,101189.44
2023-01-07T06:42:33.449Z,101186.19
2023-01-07T06:47:57.542Z,101190.00
2023-01-07T06:53:19.603Z,101180.91
2023-01-07T06:58:41.343Z,101179.25
2023-01-07T07:04:03.401Z,101176.44
2023-01-07T07:09:25.119Z,101173.94
2023-01-07T07:14:47.229Z,101177.88
2023-01-07T07:20:09.529Z,101171.97
2023-01-07T07:25:31.274Z,101177.47
2023-01-07T07:30:53.010Z,101160.09
2023-01-07T07:36:14.860Z,101161.63
2023-01-07T07:41:36.558Z,101168.44
2023-01-07T07:46:58.309Z,101164.66
2023-01-07T07:52:20.046Z,101155.00
2023-01-07T07:57:41.855Z,101149.84
2023-01-07T08:03:04.304Z,101133.63
2023-01-07T08:08:26.046Z,101134.59
2023-01-07T08:13:48.015Z,101126.69
2023-01-07T08:19:10.918Z,101125.97
2023-01-07T08:24:32.711Z,101115.63
2023-01-07T08:29:55.432Z,101109.47
2023-01-07T08:35:17.541Z,101105.88
2023-01-07T08:40:39.340Z,101088.72
2023-01-07T08:46:01.062Z,101081.06
2023-01-07T08:51:22.854Z,101065.63
2023-01-07T08:56:44.617Z,101068.41
2023-01-07T09:02:11.025Z,101060.91
2023-01-07T09:07:32.820Z,101056.78
2023-01-07T09:12:54.566Z,101056.78
2023-01-07T09:18:16.323Z,101049.63
2023-01-07T09:23:38.080Z,101038.88
2023-01-07T09:28:59.757Z,101035.34
2023-01-07T09:34:21.683Z,101030.97
2023-01-07T09:39:43.411Z,101022.91
2023-01-07T09:45:19.307Z,101010.44
2023-01-07T09:50:46.634Z,100993.78
2023-01-07T09:56:25.577Z,100989.91
2023-01-07T10:01:59.819Z,100986.88
2023-01-07T10:07:38.492Z,100972.44
2023-01-07T10:13:31.927Z,100955.19
2023-01-07T10:19:33.097Z,100950.41
2023-01-07T10:25:00.532Z,100956.13
2023-01-07T10:30:27.111Z,100944.66
2023-01-07T10:36:11.140Z,100942.63
2023-01-07T10:41:54.534Z,100932.91
2023-01-07T10:47:57.482Z,100902.88
2023-01-07T10:53:49.724Z,100903.97
2023-01-07T10:59:15.761Z,100882.28
2023-01-07T11:04:37.446Z,100862.78
2023-01-07T11:10:04.435Z,100851.69
2023-01-07T11:15:45.429Z,100837.91
2023-01-07T11:21:07.303Z,100822.41
2023-01-07T11:26:35.003Z,100818.66
2023-01-07T11:32:00.755Z,100801.31
2023-01-07T11:37:34.358Z,100795.31
2023-01-07T11:42:57.768Z,100785.09
2023-01-07T11:48:35.229Z,100776.38
2023-01-07T11:53:59.275Z,100766.41
2023-01-07T11:59:20.926Z,100762.00
2023-01-07T12:04:42.775Z,100741.47
2023-01-07T12:10:22.646Z,100739.78
2023-01-07T12:16:02.232Z,100740.00
2023-01-07T12:21:29.386Z,100737.34
2023-01-07T12:27:34.960Z,100722.22
2023-01-07T12:33:11.656Z,100713.78
2023-01-07T12:38:40.700Z,100709.47
2023-01-07T12:44:11.571Z,100699.16
2023-01-07T12:49:47.132Z,100671.84
2023-01-07T12:55:25.791Z,100680.03
2023-01-07T13:00:52.801Z,100639.41
2023-01-07T13:06:21.134Z,100632.09
2023-01-07T13:12:08.402Z,100610.84
2023-01-07T13:17:51.812Z,100601.84
2023-01-07T13:23:50.780Z,100597.63
2023-01-07T13:29:24.445Z,100592.81
2023-01-07T13:35:13.870Z,100581.53
2023-01-07T13:40:44.340Z,100570.56
2023-01-07T13:46:12.710Z,100557.56
2023-01-07T13:51:37.984Z,100556.19
2023-01-07T13:57:19.899Z,100555.34
2023-01-07T14:02:58.207Z,100557.03
2023-01-07T14:08:28.626Z,100557.34
2023-01-07T14:14:02.012Z,100537.94
2023-01-07T14:19:45.748Z,100533.81
2023-01-07T14:25:25.425Z,100527.22
2023-01-07T14:30:50.090Z,100524.97
2023-01-07T14:36:12.998Z,100524.97
2023-01-07T14:41:34.784Z,100525.84
2023-01-07T14:46:56.771Z,100527.75
2023-01-07T14:52:48.747Z,100524.75
2023-01-07T14:58:32.447Z,100520.22
2023-01-07T15:04:32.554Z,100509.09
2023-01-07T15:10:16.722Z,100498.81
2023-01-07T15:15:59.775Z,100492.69
2023-01-07T15:21:30.342Z,100489.91
2023-01-07T15:27:05.670Z,100479.63
2023-01-07T15:32:35.335Z,100476.03
2023-01-07T15:37:57.390Z,100471.91
2023-01-07T15:43:23.981Z,100457.78
2023-01-07T15:48:45.706Z,100457.78
2023-01-07T15:54:25.741Z,100443.94
2023-01-07T15:59:50.730Z,100439.75
2023-01-07T16:05:12.767Z,100453.66
2023-01-07T16:10:35.902Z,100453.94
2023-01-07T16:16:03.459Z,100451.13
2023-01-07T16:21:56.634Z,100468.88
2023-01-07T16:27:27.595Z,100448.25
2023-01-07T16:32:49.717Z,100442.34
2023-01-07T16:38:13.372Z,100450.41
2023-01-07T16:43:43.538Z,100449.81
2023-01-07T16:49:26.583Z,100438.19
2023-01-07T16:54:49.773Z,100431.47
2023-01-07T17:00:20.320Z,100445.84
2023-01-07T17:05:42.185Z,100431.97
2023-01-07T17:11:22.666Z,100434.16
2023-01-07T17:16:44.514Z,100432.19
2023-01-07T17:22:29.558Z,100400.22
2023-01-07T17:27:56.653Z,100393.56
2023-01-07T17:33:20.700Z,100382.97
2023-01-07T17:38:42.501Z,100388.25
2023-01-07T17:44:06.615Z,100398.75
2023-01-07T17:49:28.325Z,100380.13
2023-01-07T17:54:50.252Z,100374.00
2023-01-07T18:00:17.952Z,100365.19
2023-01-07T18:05:41.392Z,100375.00
2023-01-07T18:11:22.112Z,100386.28
2023-01-07T18:16:44.348Z,100385.88
2023-01-07T18:22:06.308Z,100379.00
2023-01-07T18:27:28.085Z,100385.50
2023-01-07T18:32:53.205Z,100379.13
2023-01-07T18:38:16.766Z,100368.56
2023-01-07T18:43:38.504Z,100364.66
2023-01-07T18:49:00.545Z,100368.25
2023-01-07T18:54:22.300Z,100374.13
2023-01-07T18:59:44.427Z,100376.34
2023-01-07T19:05:07.194Z,100384.16
2023-01-07T19:10:28.879Z,100387.50
2023-01-07T19:15:50.609Z,100374.69
2023-01-07T19:21:12.736Z,100370.75
2023-01-07T19:26:35.344Z,100372.16
2023-01-07T19:31:57.157Z,100363.53
2023-01-07T19:37:19.487Z,100336.25
2023-01-07T19:42:41.354Z,100337.94
2023-01-07T19:48:03.117Z,100353.81
2023-01-07T19:53:25.732Z,100336.81
2023-01-07T19:58:47.451Z,100335.38
2023-01-07T20:04:09.246Z,100342.56
2023-01-07T20:09:31.064Z,100325.53
2023-01-07T20:14:52.744Z,100335.25
2023-01-07T20:20:14.751Z,100342.75
2023-01-07T20:25:36.487Z,100325.53
2023-01-07T20:30:58.206Z,100316.34
2023-01-07T20:36:24.076Z,100313.84
2023-01-07T20:41:46.037Z,100315.00
2023-01-07T20:47:07.737Z,100309.38
2023-01-07T20:52:29.420Z,100303.25
2023-01-07T20:57:51.144Z,100294.28
2023-01-07T21:03:12.903Z,100311.22
2023-01-07T21:08:34.927Z,100298.34
2023-01-07T21:13:56.698Z,100302.53
2023-01-07T21:19:18.425Z,100297.53
2023-01-07T21:24:40.145Z,100297.63
2023-01-07T21:30:04.945Z,100297.09
2023-01-07T21:35:27.627Z,100298.56
2023-01-07T21:40:49.644Z,100292.47
2023-01-07T21:46:11.911Z,100289.44
2023-01-07T21:51:34.565Z,100292.84
2023-01-07T21:56:56.254Z,100278.66
2023-01-07T22:02:18.960Z,100263.94
2023-01-07T22:07:40.757Z,100268.97
2023-01-07T22:13:02.446Z,100265.06
2023-01-07T22:18:24.225Z,100268.97
2023-01-07T22:23:47.283Z,100270.66
2023-01-07T22:29:09.061Z,100286.47
2023-01-07T22:34:30.795Z,100297.34
2023-01-07T22:39:58.595Z,100301.19
2023-01-07T22:45:39.342Z,100298.38
2023-01-07T22:51:06.793Z,100287.28
2023-01-07T22:56:28.984Z,100280.88
2023-01-07T23:01:50.663Z,100271.69
2023-01-07T23:07:12.357Z,100269.47
2023-01-07T23:12:34.104Z,100264.44
2023-01-07T23:17:56.158Z,100261.94
2023-01-07T23:23:17.917Z,100251.63
2023-01-07T23:28:39.781Z,100258.88
2023-01-07T23:34:01.785Z,100253.28
2023-01-07T23:39:23.597Z,100249.13
2023-01-07T23:44:45.404Z,100246.06
2023-01-07T23:50:07.770Z,100244.94
2023-01-07T23:55:29.682Z,100256.31
